sensor_id;sensor_type;location;lat;lon;timestamp;P1;durP1;ratioP1;P2;durP2;ratioP2
12072;SDS011;6098;49.004;8.372;2023-11-18T00:08:11;15.36;;;8.99;;
12072;SDS011;6098;49.004;8.372;2023-11-18T00:23:02;13.66;;;8.52;;
12072;SDS011;6098;49.004;8.372;2023-11-18T00:37:55;13.43;;;8.83;;
12072;SDS011;6098;49.004;8.372;2023-11-18T00:52:46;15.22;;;8.48;;
12072;SDS011;6098;49.004;8.372;2023-11-18T01:07:37;13.97;;;8.60;;
12072;SDS011;6098;49.004;8.372;2023-11-18T01:22:27;12.40;;;7.86;;
12072;SDS011;6098;49.004;8.372;2023-11-18T01:37:18;15.20;;;8.86;;
12072;SDS011;6098;49.004;8.372;2023-11-18T01:52:10;12.98;;;7.24;;
12072;SDS011;6098;49.004;8.372;2023-11-18T02:07:01;11.07;;;7.16;;
12072;SDS011;6098;49.004;8.372;2023-11-18T02:21:52;11.53;;;6.99;;
12072;SDS011;6098;49.004;8.372;2023-11-18T02:36:44;12.09;;;7.66;;
12072;SDS011;6098;49.004;8.372;2023-11-18T02:51:35;13.42;;;7.83;;
12072;SDS011;6098;49.004;8.372;2023-11-18T03:06:32;12.81;;;7.83;;
12072;SDS011;6098;49.004;8.372;2023-11-18T03:21:23;14.69;;;8.71;;
12072;SDS011;6098;49.004;8.372;2023-11-18T03:36:16;12.39;;;7.93;;
12072;SDS011;6098;49.004;8.372;2023-11-18T03:51:07;15.49;;;9.12;;
12072;SDS011;6098;49.004;8.372;2023-11-18T04:06:00;15.39;;;9.72;;
12072;SDS011;6098;49.004;8.372;2023-11-18T04:20:53;18.89;;;10.10;;
12072;SDS011;6098;49.004;8.372;2023-11-18T04:35:45;16.89;;;10.52;;
12072;SDS011;6098;49.004;8.372;2023-11-18T04:50:36;18.30;;;10.72;;
12072;SDS011;6098;49.004;8.372;2023-11-18T05:05:27;24.40;;;12.43;;
12072;SDS011;6098;49.004;8.372;2023-11-18T05:20:17;20.80;;;11.17;;
12072;SDS011;6098;49.004;8.372;2023-11-18T05:35:09;21.90;;;10.87;;
12072;SDS011;6098;49.004;8.372;2023-11-18T05:50:03;19.32;;;10.42;;
12072;SDS011;6098;49.004;8.372;2023-11-18T06:04:55;17.44;;;10.26;;
12072;SDS011;6098;49.004;8.372;2023-11-18T06:19:47;18.81;;;10.20;;
12072;SDS011;6098;49.004;8.372;2023-11-18T06:34:38;17.97;;;10.01;;
12072;SDS011;6098;49.004;8.372;2023-11-18T06:49:28;19.22;;;10.52;;
12072;SDS011;6098;49.004;8.372;2023-11-18T07:04:20;16.56;;;9.30;;
12072;SDS011;6098;49.004;8.372;2023-11-18T07:19:15;18.28;;;10.08;;
12072;SDS011;6098;49.004;8.372;2023-11-18T07:34:06;17.78;;;10.23;;
12072;SDS011;6098;49.004;8.372;2023-11-18T07:48:56;18.69;;;9.86;;
12072;SDS011;6098;49.004;8.372;2023-11-18T08:03:48;17.23;;;9.09;;
12072;SDS011;6098;49.004;8.372;2023-11-18T08:18:38;17.72;;;9.12;;
12072;SDS011;6098;49.004;8.372;2023-11-18T08:33:29;13.22;;;8.33;;
12072;SDS011;6098;49.004;8.372;2023-11-18T08:48:21;15.31;;;8.33;;
12072;SDS011;6098;49.004;8.372;2023-11-18T09:03:12;16.40;;;8.22;;
12072;SDS011;6098;49.004;8.372;2023-11-18T09:18:13;15.13;;;8.06;;
12072;SDS011;6098;49.004;8.372;2023-11-18T09:33:06;10.22;;;5.94;;
12072;SDS011;6098;49.004;8.372;2023-11-18T09:47:57;9.36;;;5.48;;
12072;SDS011;6098;49.004;8.372;2023-11-18T10:02:50;6.61;;;4.26;;
12072;SDS011;6098;49.004;8.372;2023-11-18T10:17:44;9.53;;;4.81;;
12072;SDS011;6098;49.004;8.372;2023-11-18T10:33:00;5.62;;;4.36;;
12072;SDS011;6098;49.004;8.372;2023-11-18T10:48:00;6.03;;;3.56;;
12072;SDS011;6098;49.004;8.372;2023-11-18T11:02:57;4.71;;;2.76;;
12072;SDS011;6098;49.004;8.372;2023-11-18T11:17:43;4.28;;;3.57;;
12072;SDS011;6098;49.004;8.372;2023-11-18T11:47:42;5.24;;;3.22;;
12072;SDS011;6098;49.004;8.372;2023-11-18T12:02:33;5.49;;;2.94;;
12072;SDS011;6098;49.004;8.372;2023-11-18T12:33:14;7.69;;;3.96;;
12072;SDS011;6098;49.004;8.372;2023-11-18T12:48:16;6.69;;;4.38;;
12072;SDS011;6098;49.004;8.372;2023-11-18T13:03:08;5.84;;;3.56;;
12072;SDS011;6098;49.004;8.372;2023-11-18T13:18:01;4.83;;;3.23;;
12072;SDS011;6098;49.004;8.372;2023-11-18T13:32:53;11.03;;;7.18;;
12072;SDS011;6098;49.004;8.372;2023-11-18T13:47:50;7.26;;;4.87;;
12072;SDS011;6098;49.004;8.372;2023-11-18T14:02:41;6.51;;;4.27;;
12072;SDS011;6098;49.004;8.372;2023-11-18T14:17:31;4.09;;;3.43;;
12072;SDS011;6098;49.004;8.372;2023-11-18T14:32:22;4.13;;;2.80;;
12072;SDS011;6098;49.004;8.372;2023-11-18T14:47:14;4.81;;;3.56;;
12072;SDS011;6098;49.004;8.372;2023-11-18T15:02:08;5.11;;;3.69;;
12072;SDS011;6098;49.004;8.372;2023-11-18T15:16:59;7.76;;;3.13;;
12072;SDS011;6098;49.004;8.372;2023-11-18T15:31:50;9.17;;;5.07;;
12072;SDS011;6098;49.004;8.372;2023-11-18T15:46:47;5.66;;;3.96;;
12072;SDS011;6098;49.004;8.372;2023-11-18T16:01:34;5.76;;;4.50;;
12072;SDS011;6098;49.004;8.372;2023-11-18T16:16:26;6.00;;;3.84;;
12072;SDS011;6098;49.004;8.372;2023-11-18T16:31:17;9.71;;;5.39;;
12072;SDS011;6098;49.004;8.372;2023-11-18T16:46:10;6.57;;;4.87;;
12072;SDS011;6098;49.004;8.372;2023-11-18T17:01:00;8.48;;;5.58;;
12072;SDS011;6098;49.004;8.372;2023-11-18T17:15:52;6.38;;;4.90;;
12072;SDS011;6098;49.004;8.372;2023-11-18T17:30:43;6.49;;;4.27;;
12072;SDS011;6098;49.004;8.372;2023-11-18T17:45:35;6.42;;;4.41;;
12072;SDS011;6098;49.004;8.372;2023-11-18T18:00:27;5.26;;;4.23;;
12072;SDS011;6098;49.004;8.372;2023-11-18T18:15:17;8.66;;;5.68;;
12072;SDS011;6098;49.004;8.372;2023-11-18T18:30:10;6.76;;;4.22;;
12072;SDS011;6098;49.004;8.372;2023-11-18T18:45:04;8.08;;;4.67;;
12072;SDS011;6098;49.004;8.372;2023-11-18T18:59:56;4.38;;;3.51;;
12072;SDS011;6098;49.004;8.372;2023-11-18T19:14:46;5.30;;;3.70;;
12072;SDS011;6098;49.004;8.372;2023-11-18T19:29:37;5.26;;;3.47;;
12072;SDS011;6098;49.004;8.372;2023-11-18T19:44:29;4.56;;;2.53;;
12072;SDS011;6098;49.004;8.372;2023-11-18T19:59:28;3.28;;;2.08;;
12072;SDS011;6098;49.004;8.372;2023-11-18T20:14:19;1.82;;;1.27;;
12072;SDS011;6098;49.004;8.372;2023-11-18T20:29:11;1.49;;;1.03;;
12072;SDS011;6098;49.004;8.372;2023-11-18T20:44:02;1.53;;;1.27;;
12072;SDS011;6098;49.004;8.372;2023-11-18T20:58:54;1.63;;;1.00;;
12072;SDS011;6098;49.004;8.372;2023-11-18T21:13:45;1.67;;;0.80;;
12072;SDS011;6098;49.004;8.372;2023-11-18T21:28:36;0.79;;;0.73;;
12072;SDS011;6098;49.004;8.372;2023-11-18T21:43:26;1.53;;;0.90;;
12072;SDS011;6098;49.004;8.372;2023-11-18T21:58:18;1.68;;;1.11;;
12072;SDS011;6098;49.004;8.372;2023-11-18T22:13:11;1.36;;;1.00;;
12072;SDS011;6098;49.004;8.372;2023-11-18T22:28:01;0.87;;;0.70;;
12072;SDS011;6098;49.004;8.372;2023-11-18T22:42:52;1.20;;;1.00;;
12072;SDS011;6098;49.004;8.372;2023-11-18T22:57:45;1.28;;;0.76;;
12072;SDS011;6098;49.004;8.372;2023-11-18T23:12:37;0.70;;;0.70;;
12072;SDS011;6098;49.004;8.372;2023-11-18T23:27:32;1.14;;;0.77;;
12072;SDS011;6098;49.004;8.372;2023-11-18T23:42:24;1.84;;;0.50;;
12072;SDS011;6098;49.004;8.372;2023-11-18T23:57:15;0.62;;;0.57;;
